createdAt,value
2023-04-15T00:01:49.359Z,101263.63
2023-04-15T00:04:16.550Z,101267.00
2023-04-15T00:06:43.600Z,101270.59
2023-04-15T00:09:10.526Z,101260.81
2023-04-15T00:11:37.540Z,101264.41
2023-04-15T00:14:04.752Z,101266.94
2023-04-15T00:16:31.826Z,101273.88
2023-04-15T00:18:59.298Z,101272.91
2023-04-15T00:21:27.788Z,101281.75
2023-04-15T00:23:55.026Z,101283.41
2023-04-15T00:26:22.562Z,101280.03
2023-04-15T00:28:50.832Z,101275.69
2023-04-15T00:31:18.387Z,101274.78
2023-04-15T00:33:46.401Z,101272.94
2023-04-15T00:36:13.558Z,101276.41
2023-04-15T00:38:40.818Z,101278.81
2023-04-15T00:41:08.008Z,101282.25
2023-04-15T00:43:35.217Z,101281.53
2023-04-15T00:46:04.293Z,101289.34
2023-04-15T00:48:32.581Z,101284.91
2023-04-15T00:50:59.560Z,101281.91
2023-04-15T00:53:26.631Z,101291.56
2023-04-15T00:55:54.400Z,101292.13
2023-04-15T00:58:21.644Z,101283.44
2023-04-15T01:00:49.519Z,101285.97
2023-04-15T01:03:16.555Z,101287.59
2023-04-15T01:05:43.882Z,101292.78
2023-04-15T01:08:10.861Z,101295.41
2023-04-15T01:10:38.093Z,101294.50
2023-04-15T01:13:05.215Z,101274.22
2023-04-15T01:15:33.628Z,101279.38
2023-04-15T01:18:01.348Z,101279.38
2023-04-15T01:20:29.232Z,101284.41
2023-04-15T01:22:58.746Z,101282.78
2023-04-15T01:25:33.652Z,101296.59
2023-04-15T01:28:01.487Z,101290.44
2023-04-15T01:30:28.757Z,101298.28
2023-04-15T01:32:56.402Z,101294.75
2023-04-15T01:35:24.223Z,101294.75
2023-04-15T01:37:51.853Z,101293.94
2023-04-15T01:40:18.891Z,101293.00
2023-04-15T01:42:45.962Z,101291.31
2023-04-15T01:45:14.290Z,101298.09
2023-04-15T01:47:41.378Z,101293.75
2023-04-15T01:50:10.333Z,101305.75
2023-04-15T01:52:37.850Z,101307.66
2023-04-15T01:55:05.048Z,101312.69
2023-04-15T01:57:32.397Z,101299.63
2023-04-15T01:59:59.323Z,101307.44
2023-04-15T02:02:26.661Z,101308.19
2023-04-15T02:04:59.053Z,101313.53
2023-04-15T02:07:26.830Z,101316.13
2023-04-15T02:09:53.783Z,101318.03
2023-04-15T02:12:21.280Z,101327.16
2023-04-15T02:14:48.260Z,101323.84
2023-04-15T02:17:15.865Z,101330.91
2023-04-15T02:19:43.540Z,101330.94
2023-04-15T02:22:13.715Z,101333.38
2023-04-15T02:24:40.633Z,101335.84
2023-04-15T02:27:09.108Z,101343.09
2023-04-15T02:29:36.208Z,101336.81
2023-04-15T02:32:03.192Z,101348.06
2023-04-15T02:34:30.644Z,101339.44
2023-04-15T02:36:58.153Z,101335.09
2023-04-15T02:39:25.351Z,101344.75
2023-04-15T02:41:52.706Z,101348.16
2023-04-15T02:44:20.839Z,101345.19
2023-04-15T02:46:52.710Z,101346.06
2023-04-15T02:49:22.012Z,101348.66
2023-04-15T02:51:49.916Z,101353.03
2023-04-15T02:54:23.202Z,101353.00
2023-04-15T02:56:51.024Z,101353.88
2023-04-15T02:59:18.125Z,101359.84
2023-04-15T03:01:45.185Z,101365.00
2023-04-15T03:04:12.585Z,101371.00
2023-04-15T03:06:39.662Z,101371.94
2023-04-15T03:09:10.931Z,101375.22
2023-04-15T03:11:40.923Z,101377.09
2023-04-15T03:14:09.747Z,101382.19
2023-04-15T03:16:40.360Z,101382.06
2023-04-15T03:19:07.664Z,101384.63
2023-04-15T03:21:34.813Z,101382.03
2023-04-15T03:24:01.820Z,101390.31
2023-04-15T03:26:29.837Z,101403.03
2023-04-15T03:29:01.218Z,101396.72
2023-04-15T03:31:28.713Z,101401.06
2023-04-15T03:33:56.526Z,101407.97
2023-04-15T03:36:24.145Z,101406.91
2023-04-15T03:38:51.185Z,101400.47
2023-04-15T03:41:18.244Z,101405.50
2023-04-15T03:43:45.261Z,101407.06
2023-04-15T03:46:12.295Z,101402.63
2023-04-15T03:48:39.242Z,101401.50
2023-04-15T03:51:06.239Z,101401.34
2023-04-15T03:53:33.155Z,101408.25
2023-04-15T03:56:00.141Z,101410.84
2023-04-15T03:58:27.109Z,101420.19
2023-04-15T04:00:55.044Z,101427.88
2023-04-15T04:03:22.137Z,101422.47
2023-04-15T04:05:49.550Z,101420.47
2023-04-15T04:08:16.856Z,101428.22
2023-04-15T04:10:43.776Z,101428.88
2023-04-15T04:13:10.867Z,101428.88
2023-04-15T04:15:37.849Z,101442.72
2023-04-15T04:18:04.995Z,101444.28
2023-04-15T04:20:32.384Z,101445.78
2023-04-15T04:22:59.375Z,101460.41
2023-04-15T04:25:26.437Z,101462.75
2023-04-15T04:27:53.351Z,101468.75
2023-04-15T04:30:20.475Z,101468.53
2023-04-15T04:32:47.576Z,101471.03
2023-04-15T04:35:14.578Z,101475.97
2023-04-15T04:37:41.452Z,101475.91
2023-04-15T04:40:09.712Z,101478.50
2023-04-15T04:42:38.578Z,101481.09
2023-04-15T04:45:07.654Z,101478.16
2023-04-15T04:47:34.718Z,101484.03
2023-04-15T04:50:01.656Z,101489.31
2023-04-15T04:52:28.540Z,101493.56
2023-04-15T04:54:55.827Z,101503.28
2023-04-15T04:57:22.834Z,101509.38
2023-04-15T04:59:49.711Z,101508.50
2023-04-15T05:02:16.816Z,101522.28
2023-04-15T05:04:43.897Z,101520.44
2023-04-15T05:07:12.476Z,101524.75
2023-04-15T05:09:39.840Z,101527.16
2023-04-15T05:12:08.084Z,101530.63
2023-04-15T05:14:35.212Z,101532.91
2023-04-15T05:17:02.214Z,101536.41
2023-04-15T05:19:32.947Z,101536.94
2023-04-15T05:22:01.139Z,101549.47
2023-04-15T05:24:37.262Z,101552.00
2023-04-15T05:27:05.480Z,101550.94
2023-04-15T05:29:32.668Z,101567.47
2023-04-15T05:32:00.400Z,101564.53
2023-04-15T05:34:27.842Z,101567.13
2023-04-15T05:36:55.091Z,101566.88
2023-04-15T05:39:22.344Z,101575.50
2023-04-15T05:41:51.141Z,101576.34
2023-04-15T05:44:22.089Z,101581.59
2023-04-15T05:46:49.261Z,101584.91
2023-04-15T05:49:17.289Z,101580.59
2023-04-15T05:51:44.416Z,101584.81
2023-04-15T05:54:11.420Z,101596.91
2023-04-15T05:56:38.458Z,101602.72
2023-04-15T05:59:10.342Z,101602.59
2023-04-15T06:01:40.629Z,101607.09
2023-04-15T06:04:07.839Z,101607.19
2023-04-15T06:06:35.986Z,101612.44
2023-04-15T06:09:03.735Z,101618.41
2023-04-15T06:11:31.068Z,101623.69
2023-04-15T06:13:58.131Z,101635.03
2023-04-15T06:16:25.516Z,101636.81
2023-04-15T06:18:53.786Z,101642.28
2023-04-15T06:21:21.378Z,101650.22
2023-04-15T06:23:48.473Z,101659.38
2023-04-15T06:26:15.718Z,101650.22
2023-04-15T06:28:42.735Z,101661.84
2023-04-15T06:31:10.013Z,101664.66
2023-04-15T06:33:36.942Z,101672.63
2023-04-15T06:36:08.226Z,101674.03
2023-04-15T06:38:40.739Z,101677.22
2023-04-15T06:41:08.581Z,101669.47
2023-04-15T06:43:35.773Z,101684.66
2023-04-15T06:46:03.895Z,101682.53
2023-04-15T06:48:32.324Z,101686.03
2023-04-15T06:50:59.918Z,101684.47
2023-04-15T06:53:29.650Z,101684.06
2023-04-15T06:55:56.805Z,101694.56
2023-04-15T06:58:23.897Z,101691.34
2023-04-15T07:00:51.334Z,101699.22
2023-04-15T07:03:18.629Z,101700.13
2023-04-15T07:05:46.004Z,101704.09
2023-04-15T07:08:12.918Z,101715.88
2023-04-15T07:10:39.951Z,101709.41
2023-04-15T07:13:09.113Z,101708.28
2023-04-15T07:15:36.138Z,101719.75
2023-04-15T07:18:03.215Z,101728.16
2023-04-15T07:20:30.384Z,101733.13
2023-04-15T07:22:57.792Z,101729.63
2023-04-15T07:25:25.380Z,101727.13
2023-04-15T07:27:53.347Z,101735.34
2023-04-15T07:30:20.509Z,101718.19
2023-04-15T07:32:47.445Z,101721.50
2023-04-15T07:35:15.219Z,101736.53
2023-04-15T07:37:44.379Z,101735.00
2023-04-15T07:40:12.225Z,101734.34
2023-04-15T07:42:41.146Z,101728.97
2023-04-15T07:45:09.457Z,101738.78
2023-04-15T07:47:37.141Z,101733.16
2023-04-15T07:50:04.415Z,101736.88
2023-04-15T07:52:34.024Z,101746.44
2023-04-15T07:55:01.684Z,101741.19
2023-04-15T07:57:28.607Z,101734.84
2023-04-15T07:59:55.628Z,101741.53
2023-04-15T08:02:22.832Z,101745.25
2023-04-15T08:04:50.005Z,101747.16
2023-04-15T08:07:17.202Z,101765.13
2023-04-15T08:09:47.871Z,101760.84
2023-04-15T08:12:16.343Z,101770.31
2023-04-15T08:14:44.353Z,101767.19
2023-04-15T08:17:15.263Z,101772.22
2023-04-15T08:19:45.127Z,101767.94
2023-04-15T08:22:17.859Z,101766.50
2023-04-15T08:24:56.398Z,101767.31
2023-04-15T08:27:23.489Z,101772.66
2023-04-15T08:29:50.422Z,101774.53
2023-04-15T08:32:17.422Z,101785.28
2023-04-15T08:34:44.447Z,101795.09
2023-04-15T08:37:15.454Z,101793.16
2023-04-15T08:39:42.761Z,101794.09
2023-04-15T08:42:17.237Z,101793.59
2023-04-15T08:44:48.027Z,101800.84
2023-04-15T08:47:15.937Z,101811.25
2023-04-15T08:49:44.970Z,101820.19
2023-04-15T08:52:13.038Z,101819.34
2023-04-15T08:54:40.277Z,101814.53
2023-04-15T08:57:08.367Z,101817.13
2023-04-15T08:59:35.910Z,101820.00
2023-04-15T09:02:04.172Z,101818.19
2023-04-15T09:04:31.695Z,101810.72
2023-04-15T09:06:58.766Z,101807.75
2023-04-15T09:09:25.892Z,101812.59
2023-04-15T09:11:53.483Z,101813.28
2023-04-15T09:14:21.169Z,101807.47
2023-04-15T09:17:02.264Z,101801.22
2023-04-15T09:19:30.776Z,101809.13
2023-04-15T09:21:59.395Z,101814.94
2023-04-15T09:24:34.087Z,101824.13
2023-04-15T09:27:02.591Z,101822.25
2023-04-15T09:29:33.210Z,101830.00
2023-04-15T09:32:11.811Z,101831.06
2023-04-15T09:34:39.177Z,101834.91
2023-04-15T09:37:07.800Z,101831.47
2023-04-15T09:39:49.450Z,101836.59
2023-04-15T09:42:20.366Z,101855.88
2023-04-15T09:44:53.185Z,101856.88
2023-04-15T09:47:33.081Z,101846.38
2023-04-15T09:50:02.185Z,101855.56
2023-04-15T09:52:29.898Z,101852.81
2023-04-15T09:55:01.879Z,101847.00
2023-04-15T09:57:38.837Z,101852.09
2023-04-15T10:00:07.643Z,101848.16
2023-04-15T10:02:36.884Z,101861.41
2023-04-15T10:05:05.013Z,101876.69
2023-04-15T10:07:33.431Z,101869.88
2023-04-15T10:10:03.321Z,101854.63
2023-04-15T10:12:31.941Z,101859.41
2023-04-15T10:15:09.631Z,101855.41
2023-04-15T10:17:37.607Z,101854.78
2023-04-15T10:20:06.431Z,101871.66
2023-04-15T10:22:35.089Z,101874.50
2023-04-15T10:25:03.121Z,101859.09
2023-04-15T10:27:30.599Z,101866.44
2023-04-15T10:29:57.837Z,101871.13
2023-04-15T10:32:25.903Z,101873.78
2023-04-15T10:34:55.365Z,101858.84
2023-04-15T10:37:24.569Z,101866.25
2023-04-15T10:39:52.469Z,101870.19
2023-04-15T10:42:21.084Z,101866.88
2023-04-15T10:44:54.897Z,101863.88
2023-04-15T10:47:23.530Z,101864.34
2023-04-15T10:49:52.830Z,101871.53
2023-04-15T10:52:25.560Z,101859.94
2023-04-15T10:55:04.924Z,101860.84
2023-04-15T10:57:38.930Z,101851.72
2023-04-15T11:00:14.544Z,101851.41
2023-04-15T11:02:44.891Z,101856.81
2023-04-15T11:05:13.247Z,101859.00
2023-04-15T11:07:41.486Z,101857.41
2023-04-15T11:10:26.161Z,101853.38
2023-04-15T11:13:02.969Z,101860.06
2023-04-15T11:15:37.052Z,101866.78
2023-04-15T11:18:07.672Z,101851.88
2023-04-15T11:20:34.966Z,101856.22
2023-04-15T11:23:08.271Z,101862.72
2023-04-15T11:25:43.552Z,101864.50
2023-04-15T11:28:11.648Z,101855.50
2023-04-15T11:30:39.537Z,101861.72
2023-04-15T11:33:07.579Z,101864.84
2023-04-15T11:35:35.572Z,101854.53
2023-04-15T11:38:06.450Z,101868.91
2023-04-15T11:40:33.714Z,101870.00
2023-04-15T11:43:21.885Z,101868.88
2023-04-15T11:45:51.795Z,101872.06
2023-04-15T11:48:51.599Z,101874.94
2023-04-15T11:52:24.882Z,101880.41
2023-04-15T11:54:22.785Z,101867.28
2023-04-15T11:56:53.928Z,101868.78
2023-04-15T11:59:22.985Z,101860.81
2023-04-15T12:01:52.938Z,101869.22
2023-04-15T12:04:25.575Z,101875.59
2023-04-15T12:06:53.753Z,101870.19
2023-04-15T12:09:21.931Z,101877.63
2023-04-15T12:11:50.985Z,101883.63
2023-04-15T12:14:26.010Z,101877.50
2023-04-15T12:16:54.566Z,101879.69
2023-04-15T12:19:28.725Z,101886.66
2023-04-15T12:22:01.529Z,101883.66
2023-04-15T12:24:31.289Z,101890.84
2023-04-15T12:27:05.863Z,101890.03
2023-04-15T12:29:34.434Z,101885.41
2023-04-15T12:32:10.119Z,101892.69
2023-04-15T12:34:38.883Z,101890.94
2023-04-15T12:37:10.567Z,101878.19
2023-04-15T12:39:39.637Z,101891.63
2023-04-15T12:42:11.124Z,101884.47
2023-04-15T12:44:45.795Z,101897.25
2023-04-15T12:47:14.439Z,101900.47
2023-04-15T12:49:41.911Z,101917.66
2023-04-15T12:52:10.092Z,101905.31
2023-04-15T12:54:38.455Z,101902.00
2023-04-15T12:57:10.193Z,101903.66
2023-04-15T12:59:38.549Z,101896.25
2023-04-15T13:02:09.180Z,101883.22
2023-04-15T13:04:37.858Z,101897.53
2023-04-15T13:07:05.119Z,101898.22
2023-04-15T13:09:40.964Z,101894.72
2023-04-15T13:12:08.459Z,101893.72
2023-04-15T13:14:35.423Z,101899.53
2023-04-15T13:17:04.351Z,101919.81
2023-04-15T13:19:33.193Z,101912.28
2023-04-15T13:22:00.698Z,101906.28
2023-04-15T13:24:30.142Z,101928.25
2023-04-15T13:27:00.112Z,101915.56
2023-04-15T13:29:27.891Z,101905.63
2023-04-15T13:31:55.951Z,101908.34
2023-04-15T13:34:23.226Z,101925.34
2023-04-15T13:36:51.496Z,101917.56
2023-04-15T13:39:19.898Z,101920.25
2023-04-15T13:41:48.737Z,101928.84
2023-04-15T13:44:15.866Z,101926.63
2023-04-15T13:46:44.456Z,101913.47
2023-04-15T13:49:11.891Z,101923.34
2023-04-15T13:51:38.863Z,101919.72
2023-04-15T13:54:07.464Z,101921.19
2023-04-15T13:56:35.067Z,101917.06
2023-04-15T13:59:02.553Z,101923.25
2023-04-15T14:01:32.941Z,101932.81
2023-04-15T14:04:00.550Z,101936.94
2023-04-15T14:06:28.208Z,101939.13
2023-04-15T14:08:56.739Z,101948.78
2023-04-15T14:11:23.814Z,101958.22
2023-04-15T14:13:50.834Z,101958.81
2023-04-15T14:16:18.857Z,101955.09
2023-04-15T14:18:49.648Z,101963.41
2023-04-15T14:21:18.062Z,101952.84
2023-04-15T14:23:45.123Z,101952.19
2023-04-15T14:26:12.245Z,101951.81
2023-04-15T14:28:40.336Z,101950.06
2023-04-15T14:31:07.732Z,101946.56
2023-04-15T14:33:35.682Z,101965.44
2023-04-15T14:36:03.453Z,101963.69
2023-04-15T14:38:35.120Z,101967.19
2023-04-15T14:41:03.524Z,101954.34
2023-04-15T14:43:31.667Z,101955.69
2023-04-15T14:45:59.091Z,101957.47
2023-04-15T14:48:26.103Z,101972.88
2023-04-15T14:50:53.974Z,101961.38
2023-04-15T14:53:21.612Z,101967.25
2023-04-15T14:55:48.605Z,101967.25
2023-04-15T14:58:19.447Z,101971.75
2023-04-15T15:00:46.812Z,101967.41
2023-04-15T15:03:14.207Z,101966.94
2023-04-15T15:05:46.463Z,101969.41
2023-04-15T15:08:14.246Z,101978.19
2023-04-15T15:10:49.464Z,101969.25
2023-04-15T15:13:17.635Z,101952.31
2023-04-15T15:15:45.738Z,101959.25
2023-04-15T15:18:13.198Z,101968.69
2023-04-15T15:20:41.439Z,101967.25
2023-04-15T15:23:08.823Z,101962.13
2023-04-15T15:25:37.049Z,101979.28
2023-04-15T15:28:04.585Z,101970.09
2023-04-15T15:30:32.577Z,101975.59
2023-04-15T15:32:59.745Z,101974.56
2023-04-15T15:35:30.304Z,101975.91
2023-04-15T15:37:57.853Z,101975.03
2023-04-15T15:40:24.728Z,101979.66
2023-04-15T15:42:52.009Z,101980.47
2023-04-15T15:45:23.043Z,101986.66
2023-04-15T15:47:50.425Z,101988.34
2023-04-15T15:50:17.370Z,101990.00
2023-04-15T15:52:45.394Z,101991.06
2023-04-15T15:55:12.683Z,101993.38
2023-04-15T15:57:40.673Z,101996.84
2023-04-15T16:00:12.142Z,101994.81
2023-04-15T16:03:05.171Z,102000.28
2023-04-15T16:05:28.260Z,102006.22
2023-04-15T16:07:55.805Z,102004.38
2023-04-15T16:10:24.207Z,102002.34
2023-04-15T16:12:59.894Z,102014.94
2023-04-15T16:15:27.841Z,102014.66
2023-04-15T16:17:56.252Z,102016.63
2023-04-15T16:20:26.767Z,102017.59
2023-04-15T16:22:53.731Z,102011.38
2023-04-15T16:25:21.746Z,102020.41
2023-04-15T16:28:03.005Z,102013.09
2023-04-15T16:30:41.063Z,102023.59
2023-04-15T16:33:09.551Z,102021.69
2023-04-15T16:35:40.180Z,102024.31
2023-04-15T16:38:08.601Z,102027.44
2023-04-15T16:40:38.180Z,102026.69
2023-04-15T16:43:07.653Z,102019.84
2023-04-15T16:45:35.724Z,102017.69
2023-04-15T16:48:03.230Z,102022.94
2023-04-15T16:50:31.224Z,102027.50
2023-04-15T16:52:58.412Z,102035.97
2023-04-15T16:55:25.641Z,102044.59
2023-04-15T16:58:02.773Z,102033.78
2023-04-15T17:00:31.597Z,102047.78
2023-04-15T17:03:00.125Z,102046.00
2023-04-15T17:05:33.569Z,102043.50
2023-04-15T17:08:05.460Z,102051.63
2023-04-15T17:10:33.895Z,102048.16
2023-04-15T17:13:02.090Z,102045.56
2023-04-15T17:15:29.477Z,102050.88
2023-04-15T17:17:57.037Z,102048.19
2023-04-15T17:20:24.573Z,102053.91
2023-04-15T17:22:52.793Z,102054.69
2023-04-15T17:25:20.169Z,102059.91
2023-04-15T17:27:50.579Z,102057.94
2023-04-15T17:30:17.668Z,102062.38
2023-04-15T17:32:44.894Z,102060.59
2023-04-15T17:35:12.183Z,102065.56
2023-04-15T17:37:39.824Z,102061.16
2023-04-15T17:40:08.751Z,102056.28
2023-04-15T17:42:37.229Z,102074.75
2023-04-15T17:45:04.757Z,102065.47
2023-04-15T17:47:32.287Z,102070.06
2023-04-15T17:49:59.406Z,102064.03
2023-04-15T17:52:26.531Z,102065.00
2023-04-15T17:54:53.421Z,102078.09
2023-04-15T17:57:22.434Z,102075.38
2023-04-15T17:59:49.395Z,102083.03
2023-04-15T18:02:16.593Z,102079.94
2023-04-15T18:04:43.820Z,102089.28
2023-04-15T18:07:11.017Z,102090.28
2023-04-15T18:09:38.264Z,102094.25
2023-04-15T18:12:07.778Z,102097.00
2023-04-15T18:14:36.557Z,102097.28
2023-04-15T18:17:03.546Z,102101.16
2023-04-15T18:19:31.276Z,102106.31
2023-04-15T18:22:00.402Z,102105.47
2023-04-15T18:24:27.882Z,102108.09
2023-04-15T18:26:54.874Z,102108.47
2023-04-15T18:29:22.185Z,102108.53
2023-04-15T18:31:49.339Z,102114.41
2023-04-15T18:34:16.304Z,102115.84
2023-04-15T18:36:43.397Z,102120.97
2023-04-15T18:39:11.253Z,102116.69
2023-04-15T18:41:39.074Z,102124.72
2023-04-15T18:44:06.397Z,102118.78
2023-04-15T18:46:33.528Z,102120.25
2023-04-15T18:49:00.663Z,102130.13
2023-04-15T18:51:39.207Z,102132.59
2023-04-15T18:54:12.872Z,102135.09
2023-04-15T18:56:40.295Z,102135.00
2023-04-15T18:59:29.386Z,102141.56
2023-04-15T19:02:07.913Z,102147.81
2023-04-15T19:04:38.790Z,102149.47
2023-04-15T19:07:06.187Z,102147.63
2023-04-15T19:09:39.697Z,102154.19
2023-04-15T19:12:06.859Z,102164.91
2023-04-15T19:14:34.029Z,102163.63
2023-04-15T19:17:01.263Z,102168.59
2023-04-15T19:19:29.774Z,102172.38
2023-04-15T19:21:58.225Z,102174.28
2023-04-15T19:24:25.777Z,102179.13
2023-04-15T19:26:53.562Z,102181.41
2023-04-15T19:29:23.990Z,102184.06
2023-04-15T19:31:51.150Z,102189.25
2023-04-15T19:34:18.141Z,102187.22
2023-04-15T19:36:45.218Z,102178.91
2023-04-15T19:39:12.369Z,102190.13
2023-04-15T19:41:56.977Z,102200.19
2023-04-15T19:44:25.590Z,102194.78
2023-04-15T19:46:53.559Z,102206.03
2023-04-15T19:49:20.744Z,102206.47
2023-04-15T19:51:50.913Z,102210.72
2023-04-15T19:54:17.891Z,102215.94
2023-04-15T19:56:44.915Z,102210.34
2023-04-15T19:59:12.983Z,102220.78
2023-04-15T20:01:40.214Z,102230.34
2023-04-15T20:04:07.712Z,102229.16
2023-04-15T20:06:34.911Z,102232.13
2023-04-15T20:09:01.893Z,102222.66
2023-04-15T20:12:46.653Z,102221.31
2023-04-15T20:14:17.776Z,102223.00
2023-04-15T20:16:45.036Z,102227.41
2023-04-15T20:19:13.384Z,102234.22
2023-04-15T20:21:40.505Z,102230.66
2023-04-15T20:24:07.649Z,102242.47
2023-04-15T20:26:34.656Z,102244.97
2023-04-15T20:29:01.776Z,102245.16
2023-04-15T20:31:29.274Z,102248.84
2023-04-15T20:33:57.394Z,102249.50
2023-04-15T20:36:24.754Z,102263.09
2023-04-15T20:38:52.654Z,102263.69
2023-04-15T20:41:20.865Z,102258.69
2023-04-15T20:43:49.261Z,102253.00
2023-04-15T20:46:21.050Z,102259.03
2023-04-15T20:48:49.175Z,102271.28
2023-04-15T20:51:17.176Z,102264.38
2023-04-15T20:53:46.913Z,102271.38
2023-04-15T20:56:14.863Z,102273.72
2023-04-15T20:58:42.124Z,102276.50
2023-04-15T21:01:10.534Z,102278.03
2023-04-15T21:03:38.281Z,102281.31
2023-04-15T21:06:06.215Z,102283.72
2023-04-15T21:08:43.427Z,102278.34
2023-04-15T21:11:33.234Z,102277.19
2023-04-15T21:14:08.143Z,102282.31
2023-04-15T21:16:36.269Z,102283.00
2023-04-15T21:19:04.616Z,102282.09
2023-04-15T21:21:35.616Z,102281.91
2023-04-15T21:24:03.697Z,102282.31
2023-04-15T21:26:31.886Z,102286.16
2023-04-15T21:28:59.534Z,102272.16
2023-04-15T21:31:27.308Z,102294.53
2023-04-15T21:33:56.318Z,102288.94
2023-04-15T21:36:23.917Z,102292.44
2023-04-15T21:38:51.862Z,102292.34
2023-04-15T21:41:23.180Z,102294.03
2023-04-15T21:43:51.069Z,102299.47
2023-04-15T21:46:32.532Z,102303.19
2023-04-15T21:49:05.369Z,102297.28
2023-04-15T21:51:33.284Z,102305.91
2023-04-15T21:54:01.985Z,102313.25
2023-04-15T21:56:29.172Z,102307.63
2023-04-15T21:58:59.880Z,102315.69
2023-04-15T22:01:27.166Z,102310.69
2023-04-15T22:03:54.395Z,102312.88
2023-04-15T22:06:21.658Z,102311.16
2023-04-15T22:09:11.264Z,102321.28
2023-04-15T22:11:38.816Z,102317.38
2023-04-15T22:14:14.732Z,102319.56
2023-04-15T22:16:52.021Z,102318.56
2023-04-15T22:19:21.737Z,102316.56
2023-04-15T22:21:52.453Z,102308.41
2023-04-15T22:24:31.638Z,102320.47
2023-04-15T22:27:06.568Z,102321.97
2023-04-15T22:29:33.617Z,102316.38
2023-04-15T22:32:00.741Z,102322.22
2023-04-15T22:34:27.779Z,102326.81
2023-04-15T22:36:54.735Z,102326.34
2023-04-15T22:39:21.835Z,102321.00
2023-04-15T22:41:49.021Z,102321.03
2023-04-15T22:44:16.868Z,102315.75
2023-04-15T22:46:44.469Z,102312.25
2023-04-15T22:49:11.882Z,102320.25
2023-04-15T22:51:39.138Z,102326.34
2023-04-15T22:54:06.070Z,102320.81
2023-04-15T22:56:33.116Z,102325.03
2023-04-15T22:59:00.360Z,102318.84
2023-04-15T23:01:27.388Z,102323.06
2023-04-15T23:03:56.668Z,102322.16
2023-04-15T23:06:31.601Z,102327.44
2023-04-15T23:08:58.637Z,102335.00
2023-04-15T23:11:25.848Z,102330.84
2023-04-15T23:13:53.330Z,102331.41
2023-04-15T23:16:20.746Z,102330.69
2023-04-15T23:18:47.748Z,102322.53
2023-04-15T23:21:14.681Z,102325.22
2023-04-15T23:23:41.640Z,102323.34
2023-04-15T23:26:08.749Z,102332.03
2023-04-15T23:28:36.168Z,102337.22
2023-04-15T23:31:03.339Z,102334.53
2023-04-15T23:33:30.819Z,102326.50
2023-04-15T23:35:57.947Z,102327.81
2023-04-15T23:38:24.990Z,102336.91
2023-04-15T23:40:52.273Z,102336.44
2023-04-15T23:43:19.225Z,102334.22
2023-04-15T23:45:46.256Z,102330.81
2023-04-15T23:48:13.474Z,102328.34
2023-04-15T23:50:40.553Z,102330.16
2023-04-15T23:53:07.600Z,102324.16
2023-04-15T23:55:35.417Z,102323.25
2023-04-15T23:58:02.749Z,102322.63
